createdAt,value
2018-08-11T00:00:25.929Z,0.00
2018-08-11T00:01:25.915Z,0.00
2018-08-11T00:02:25.911Z,0.00
2018-08-11T00:03:25.889Z,0.00
2018-08-11T00:04:25.878Z,0.00
2018-08-11T00:05:25.866Z,0.00
2018-08-11T00:06:25.862Z,0.00
2018-08-11T00:07:25.841Z,0.00
2018-08-11T00:08:25.830Z,0.00
2018-08-11T00:09:25.821Z,0.00
2018-08-11T00:10:25.810Z,0.00
2018-08-11T00:11:25.793Z,0.00
2018-08-11T00:12:25.781Z,0.00
2018-08-11T00:13:25.778Z,0.00
2018-08-11T00:14:25.759Z,0.00
2018-08-11T00:15:25.750Z,0.00
2018-08-11T00:16:25.737Z,0.00
2018-08-11T00:17:25.725Z,0.00
2018-08-11T00:18:25.711Z,0.00
2018-08-11T00:19:25.698Z,0.00
2018-08-11T00:20:25.689Z,0.00
2018-08-11T00:21:25.674Z,0.00
2018-08-11T00:22:25.663Z,0.00
2018-08-11T00:23:25.657Z,0.00
2018-08-11T00:24:25.637Z,0.00
2018-08-11T00:25:25.625Z,0.00
2018-08-11T00:26:25.613Z,0.00
2018-08-11T00:27:25.599Z,0.00
2018-08-11T00:28:25.589Z,0.00
2018-08-11T00:29:25.586Z,0.00
2018-08-11T00:30:25.573Z,0.00
2018-08-11T00:31:25.552Z,0.00
2018-08-11T00:32:25.541Z,0.00
2018-08-11T00:33:25.530Z,0.00
2018-08-11T00:34:25.527Z,0.00
2018-08-11T00:35:25.505Z,0.00
2018-08-11T00:36:25.554Z,0.00
2018-08-11T00:37:25.481Z,0.00
2018-08-11T00:38:25.469Z,0.00
2018-08-11T00:39:25.462Z,0.00
2018-08-11T00:40:25.446Z,0.00
2018-08-11T00:41:25.434Z,0.00
2018-08-11T00:42:25.422Z,0.00
2018-08-11T00:43:25.406Z,0.00
2018-08-11T00:44:25.395Z,0.00
2018-08-11T00:45:25.383Z,0.00
2018-08-11T00:46:25.373Z,0.00
2018-08-11T00:47:25.364Z,0.00
2018-08-11T00:48:25.355Z,0.00
2018-08-11T00:49:25.341Z,0.00
2018-08-11T00:50:25.329Z,0.00
2018-08-11T00:51:25.312Z,0.00
2018-08-11T00:52:25.304Z,0.00
2018-08-11T00:53:25.289Z,0.00
2018-08-11T00:54:25.277Z,0.00
2018-08-11T00:55:25.264Z,0.00
2018-08-11T00:56:25.264Z,0.00
2018-08-11T00:57:25.240Z,0.00
2018-08-11T00:58:25.232Z,0.00
2018-08-11T00:59:25.215Z,0.00
2018-08-11T01:00:25.205Z,0.00
2018-08-11T01:01:25.194Z,0.00
2018-08-11T01:02:25.306Z,0.00
2018-08-11T01:03:25.168Z,0.00
2018-08-11T01:04:25.156Z,0.00
2018-08-11T01:05:25.143Z,0.00
2018-08-11T01:06:25.134Z,0.00
2018-08-11T01:07:25.118Z,0.00
2018-08-11T01:08:25.108Z,0.00
2018-08-11T01:09:25.104Z,0.00
2018-08-11T01:10:25.083Z,0.00
2018-08-11T01:11:25.077Z,0.00
2018-08-11T01:12:25.058Z,0.00
2018-08-11T01:13:25.047Z,0.00
2018-08-11T01:14:25.040Z,0.00
2018-08-11T01:15:25.020Z,0.00
2018-08-11T01:16:25.010Z,0.00
2018-08-11T01:17:24.999Z,0.00
2018-08-11T01:18:24.983Z,0.00
2018-08-11T01:19:24.968Z,0.00
2018-08-11T01:20:24.962Z,0.00
2018-08-11T01:21:24.946Z,0.00
2018-08-11T01:22:24.935Z,0.00
2018-08-11T01:23:24.919Z,0.00
2018-08-11T01:24:24.906Z,0.00
2018-08-11T01:25:24.895Z,0.00
2018-08-11T01:26:24.881Z,0.00
2018-08-11T01:27:24.866Z,0.00
2018-08-11T01:28:24.856Z,0.00
2018-08-11T01:29:24.849Z,0.00
2018-08-11T01:30:24.835Z,0.00
2018-08-11T01:31:24.817Z,0.00
2018-08-11T01:32:24.805Z,0.00
2018-08-11T01:33:24.792Z,0.00
2018-08-11T01:34:24.782Z,0.00
2018-08-11T01:35:24.768Z,0.00
2018-08-11T01:36:24.757Z,0.00
2018-08-11T01:37:24.743Z,0.00
2018-08-11T01:38:24.732Z,0.00
2018-08-11T01:39:24.720Z,0.00
2018-08-11T01:40:24.709Z,0.00
2018-08-11T01:41:24.708Z,0.00
2018-08-11T01:42:24.681Z,0.00
2018-08-11T01:43:24.667Z,0.00
2018-08-11T01:44:24.812Z,0.00
2018-08-11T01:45:24.640Z,0.00
2018-08-11T01:46:24.628Z,0.00
2018-08-11T01:47:24.616Z,0.00
2018-08-11T01:48:24.603Z,0.00
2018-08-11T01:49:24.592Z,0.00
2018-08-11T01:50:24.579Z,0.00
2018-08-11T01:51:24.562Z,0.00
2018-08-11T01:52:24.551Z,0.00
2018-08-11T01:53:24.537Z,0.00
2018-08-11T01:54:24.523Z,0.00
2018-08-11T01:55:24.514Z,0.00
2018-08-11T01:56:24.540Z,0.00
2018-08-11T01:57:24.485Z,0.00
2018-08-11T01:58:24.473Z,0.00
2018-08-11T01:59:24.462Z,0.00
2018-08-11T02:00:24.449Z,0.00
2018-08-11T02:01:24.430Z,0.00
2018-08-11T02:02:24.421Z,0.00
2018-08-11T02:03:24.405Z,0.00
2018-08-11T02:04:24.396Z,0.00
2018-08-11T02:05:24.379Z,0.00
2018-08-11T02:06:24.366Z,0.00
2018-08-11T02:07:24.358Z,0.00
2018-08-11T02:08:24.339Z,0.00
2018-08-11T02:09:24.326Z,0.00
2018-08-11T02:10:24.318Z,0.00
2018-08-11T02:11:24.392Z,0.00
2018-08-11T02:12:24.294Z,0.00
2018-08-11T02:13:24.273Z,0.00
2018-08-11T02:14:24.262Z,0.00
2018-08-11T02:15:24.247Z,0.00
2018-08-11T02:16:24.240Z,0.00
2018-08-11T02:17:24.218Z,0.00
2018-08-11T02:18:24.209Z,0.00
2018-08-11T02:19:24.196Z,0.00
2018-08-11T02:20:24.181Z,0.00
2018-08-11T02:21:24.163Z,0.00
2018-08-11T02:22:24.159Z,0.00
2018-08-11T02:23:24.136Z,0.00
2018-08-11T02:24:24.124Z,0.00
2018-08-11T02:25:24.111Z,0.00
2018-08-11T02:26:24.098Z,0.00
2018-08-11T02:27:24.083Z,0.00
2018-08-11T02:28:24.070Z,0.00
2018-08-11T02:29:24.058Z,0.00
2018-08-11T02:30:24.042Z,0.00
2018-08-11T02:31:24.028Z,0.00
2018-08-11T02:32:24.018Z,0.00
2018-08-11T02:33:24.001Z,0.00
2018-08-11T02:34:24.066Z,0.00
2018-08-11T02:35:23.974Z,0.00
2018-08-11T02:36:23.961Z,0.00
2018-08-11T02:37:23.954Z,0.00
2018-08-11T02:38:23.933Z,0.00
2018-08-11T02:39:23.916Z,0.00
2018-08-11T02:40:23.906Z,0.00
2018-08-11T02:41:23.890Z,0.00
2018-08-11T02:42:23.877Z,0.00
2018-08-11T02:43:23.863Z,0.00
2018-08-11T02:44:23.850Z,0.00
2018-08-11T02:45:23.834Z,0.00
2018-08-11T02:46:23.825Z,0.00
2018-08-11T02:47:23.814Z,0.00
2018-08-11T02:48:23.791Z,0.00
2018-08-11T02:49:23.777Z,0.00
2018-08-11T02:50:23.768Z,0.00
2018-08-11T02:51:23.752Z,0.00
2018-08-11T02:52:23.735Z,0.00
2018-08-11T02:53:23.721Z,0.00
2018-08-11T02:54:23.712Z,0.00
2018-08-11T02:55:23.699Z,0.00
2018-08-11T02:56:23.678Z,0.00
2018-08-11T02:57:23.664Z,0.00
2018-08-11T02:58:23.651Z,0.00
2018-08-11T02:59:23.640Z,0.00
2018-08-11T03:00:23.624Z,0.00
2018-08-11T03:01:23.608Z,0.00
2018-08-11T03:02:23.640Z,0.00
2018-08-11T03:03:23.583Z,0.00
2018-08-11T03:04:23.563Z,0.00
2018-08-11T03:05:23.549Z,0.00
2018-08-11T03:06:23.536Z,0.00
2018-08-11T03:07:23.520Z,0.00
2018-08-11T03:08:23.515Z,0.00
2018-08-11T03:09:23.494Z,0.00
2018-08-11T03:10:23.478Z,0.00
2018-08-11T03:11:23.470Z,0.00
2018-08-11T03:12:23.448Z,0.00
2018-08-11T03:13:23.439Z,0.00
2018-08-11T03:14:23.430Z,0.00
2018-08-11T03:15:23.408Z,0.00
2018-08-11T03:16:23.391Z,0.00
2018-08-11T03:17:23.379Z,0.00
2018-08-11T03:18:23.363Z,0.00
2018-08-11T03:19:23.350Z,0.00
2018-08-11T03:20:23.334Z,0.00
2018-08-11T03:21:23.322Z,0.00
2018-08-11T03:22:23.303Z,0.00
2018-08-11T03:23:23.289Z,0.00
2018-08-11T03:24:23.276Z,0.00
2018-08-11T03:25:23.270Z,0.00
2018-08-11T03:26:23.248Z,0.00
2018-08-11T03:27:23.236Z,0.00
2018-08-11T03:28:23.222Z,0.00
2018-08-11T03:29:23.205Z,0.00
2018-08-11T03:30:23.190Z,0.00
2018-08-11T03:31:23.174Z,0.00
2018-08-11T03:32:23.161Z,0.00
2018-08-11T03:33:23.146Z,0.00
2018-08-11T03:34:23.131Z,0.00
2018-08-11T03:35:23.119Z,0.00
2018-08-11T03:36:23.104Z,0.00
2018-08-11T03:37:23.090Z,0.00
2018-08-11T03:38:23.073Z,0.00
2018-08-11T03:39:23.064Z,0.00
2018-08-11T03:40:23.046Z,0.00
2018-08-11T03:41:23.036Z,0.00
2018-08-11T03:42:23.016Z,0.00
2018-08-11T03:43:23.005Z,0.00
2018-08-11T03:44:22.984Z,0.00
2018-08-11T03:45:22.976Z,0.00
2018-08-11T03:46:22.958Z,0.00
2018-08-11T03:47:22.949Z,0.00
2018-08-11T03:48:22.932Z,0.00
2018-08-11T03:49:22.915Z,0.00
2018-08-11T03:50:22.901Z,0.00
2018-08-11T03:51:22.885Z,0.00
2018-08-11T03:52:22.911Z,0.00
2018-08-11T03:53:22.859Z,0.00
2018-08-11T03:54:22.846Z,0.00
2018-08-11T03:55:22.828Z,0.00
2018-08-11T03:56:22.814Z,0.00
2018-08-11T03:57:22.806Z,0.00
2018-08-11T03:58:22.793Z,0.00
2018-08-11T03:59:22.769Z,0.00
2018-08-11T04:00:22.755Z,0.00
2018-08-11T04:01:22.744Z,0.00
2018-08-11T04:02:22.737Z,0.00
2018-08-11T04:03:22.710Z,0.00
2018-08-11T04:04:22.696Z,0.00
2018-08-11T04:05:22.683Z,0.00
2018-08-11T04:06:22.672Z,0.00
2018-08-11T04:07:22.657Z,0.00
2018-08-11T04:08:22.638Z,0.00
2018-08-11T04:09:22.623Z,0.00
2018-08-11T04:10:22.606Z,0.00
2018-08-11T04:11:22.599Z,0.00
2018-08-11T04:12:22.595Z,0.00
2018-08-11T04:13:22.562Z,0.00
2018-08-11T04:14:22.550Z,0.00
2018-08-11T04:15:22.532Z,0.00
2018-08-11T04:16:22.522Z,0.00
2018-08-11T04:17:22.503Z,5.63
2018-08-11T04:18:22.492Z,5.63
2018-08-11T04:19:22.473Z,5.63
2018-08-11T04:20:22.457Z,5.63
2018-08-11T04:21:22.444Z,5.63
2018-08-11T04:22:22.432Z,5.63
2018-08-11T04:23:22.415Z,5.63
2018-08-11T04:24:22.399Z,5.63
2018-08-11T04:25:22.383Z,5.63
2018-08-11T04:26:22.373Z,5.63
2018-08-11T04:27:22.356Z,5.63
2018-08-11T04:28:22.343Z,5.63
2018-08-11T04:29:22.331Z,11.25
2018-08-11T04:30:22.310Z,11.25
2018-08-11T04:31:22.297Z,11.25
2018-08-11T04:32:22.280Z,11.25
2018-08-11T04:33:22.267Z,11.25
2018-08-11T04:34:22.256Z,11.25
2018-08-11T04:35:22.237Z,11.25
2018-08-11T04:36:22.223Z,16.88
2018-08-11T04:37:22.216Z,16.88
2018-08-11T04:38:22.192Z,16.88
2018-08-11T04:39:22.176Z,16.88
2018-08-11T04:40:22.163Z,16.88
2018-08-11T04:41:22.148Z,16.88
2018-08-11T04:42:22.133Z,16.88
2018-08-11T04:43:22.116Z,16.88
2018-08-11T04:44:22.106Z,22.50
2018-08-11T04:45:22.091Z,16.88
2018-08-11T04:46:22.077Z,22.50
2018-08-11T04:47:22.061Z,22.50
2018-08-11T04:48:22.043Z,22.50
2018-08-11T04:49:22.028Z,22.50
2018-08-11T04:50:22.013Z,22.50
2018-08-11T04:51:21.998Z,22.50
2018-08-11T04:52:21.983Z,22.50
2018-08-11T04:53:21.971Z,28.13
2018-08-11T04:54:21.958Z,28.13
2018-08-11T04:55:21.942Z,28.13
2018-08-11T04:56:21.924Z,28.13
2018-08-11T04:57:21.910Z,28.13
2018-08-11T04:58:21.895Z,28.13
2018-08-11T04:59:21.881Z,28.13
2018-08-11T05:00:21.864Z,28.13
2018-08-11T05:01:21.854Z,28.13
2018-08-11T05:02:21.840Z,28.13
2018-08-11T05:03:21.823Z,22.50
2018-08-11T05:04:21.805Z,22.50
2018-08-11T05:05:21.793Z,22.50
2018-08-11T05:06:21.777Z,28.13
2018-08-11T05:07:21.762Z,22.50
2018-08-11T05:08:21.754Z,22.50
2018-08-11T05:09:21.734Z,22.50
2018-08-11T05:10:21.720Z,16.88
2018-08-11T05:11:21.707Z,22.50
2018-08-11T05:12:21.692Z,22.50
2018-08-11T05:13:21.675Z,22.50
2018-08-11T05:14:21.670Z,22.50
2018-08-11T05:15:21.648Z,22.50
2018-08-11T05:16:21.631Z,22.50
2018-08-11T05:17:21.618Z,22.50
2018-08-11T05:18:21.606Z,22.50
2018-08-11T05:19:21.588Z,28.13
2018-08-11T05:20:21.577Z,28.13
2018-08-11T05:21:21.567Z,33.75
2018-08-11T05:22:21.547Z,33.75
2018-08-11T05:23:21.534Z,28.13
2018-08-11T05:24:21.514Z,28.13
2018-08-11T05:25:21.508Z,28.13
2018-08-11T05:26:21.512Z,28.13
2018-08-11T05:27:21.472Z,28.13
2018-08-11T05:28:21.457Z,28.13
2018-08-11T05:29:21.443Z,28.13
2018-08-11T05:30:21.431Z,22.50
2018-08-11T05:31:21.415Z,22.50
2018-08-11T05:32:21.401Z,22.50
2018-08-11T05:33:21.414Z,22.50
2018-08-11T05:34:21.370Z,28.13
2018-08-11T05:35:21.357Z,28.13
2018-08-11T05:36:21.341Z,28.13
2018-08-11T05:37:21.328Z,28.13
2018-08-11T05:38:21.312Z,33.75
2018-08-11T05:39:21.302Z,33.75
2018-08-11T05:40:21.283Z,28.13
2018-08-11T05:41:21.277Z,28.13
2018-08-11T05:42:21.255Z,28.13
2018-08-11T05:43:21.239Z,28.13
2018-08-11T05:44:21.225Z,22.50
2018-08-11T05:45:21.217Z,28.13
2018-08-11T05:46:21.200Z,28.13
2018-08-11T05:47:21.185Z,28.13
2018-08-11T05:48:21.173Z,28.13
2018-08-11T05:49:21.153Z,28.13
2018-08-11T05:50:21.140Z,28.13
2018-08-11T05:51:21.124Z,33.75
2018-08-11T05:52:21.111Z,33.75
2018-08-11T05:53:21.098Z,28.13
2018-08-11T05:54:21.086Z,33.75
2018-08-11T05:55:21.077Z,39.38
2018-08-11T05:56:21.054Z,39.38
2018-08-11T05:57:21.044Z,39.38
2018-08-11T05:58:21.031Z,28.13
2018-08-11T05:59:21.021Z,33.75
2018-08-11T06:00:21.000Z,33.75
2018-08-11T06:01:20.990Z,33.75
2018-08-11T06:02:20.972Z,39.38
2018-08-11T06:03:20.959Z,45.00
2018-08-11T06:04:20.942Z,50.63
2018-08-11T06:05:20.933Z,61.88
2018-08-11T06:06:20.916Z,50.63
2018-08-11T06:07:20.900Z,61.88
2018-08-11T06:08:20.885Z,73.13
2018-08-11T06:09:20.873Z,78.75
2018-08-11T06:10:20.862Z,73.13
2018-08-11T06:11:20.844Z,73.13
2018-08-11T06:12:20.831Z,56.25
2018-08-11T06:13:20.816Z,39.38
2018-08-11T06:14:20.806Z,39.38
2018-08-11T06:15:20.795Z,56.25
2018-08-11T06:16:20.780Z,61.88
2018-08-11T06:17:20.759Z,90.00
2018-08-11T06:18:20.755Z,101.25
2018-08-11T06:19:20.735Z,95.63
2018-08-11T06:20:20.718Z,112.50
2018-08-11T06:21:20.711Z,101.25
2018-08-11T06:22:20.694Z,106.88
2018-08-11T06:23:20.680Z,129.38
2018-08-11T06:24:20.664Z,135.00
2018-08-11T06:25:20.657Z,157.50
2018-08-11T06:26:20.641Z,157.50
2018-08-11T06:27:20.620Z,140.63
2018-08-11T06:28:20.608Z,157.50
2018-08-11T06:29:20.594Z,174.38
2018-08-11T06:30:20.585Z,180.00
2018-08-11T06:31:20.606Z,163.13
2018-08-11T06:32:20.554Z,168.75
2018-08-11T06:33:20.542Z,140.63
2018-08-11T06:34:20.532Z,129.38
2018-08-11T06:35:20.521Z,146.25
2018-08-11T06:36:20.502Z,129.38
2018-08-11T06:37:20.488Z,112.50
2018-08-11T06:38:20.474Z,118.13
2018-08-11T06:39:20.463Z,157.50
2018-08-11T06:40:20.463Z,95.63
2018-08-11T06:41:20.438Z,90.00
2018-08-11T06:42:20.424Z,118.13
2018-08-11T06:43:20.420Z,146.25
2018-08-11T06:44:20.396Z,101.25
2018-08-11T06:45:20.383Z,151.88
2018-08-11T06:46:20.371Z,191.25
2018-08-11T06:47:20.356Z,191.25
2018-08-11T06:48:20.349Z,180.00
2018-08-11T06:49:20.335Z,185.63
2018-08-11T06:50:20.319Z,185.63
2018-08-11T06:51:20.309Z,151.88
2018-08-11T06:52:20.295Z,180.00
2018-08-11T06:53:20.278Z,196.88
2018-08-11T06:54:20.268Z,196.88
2018-08-11T06:55:20.257Z,196.88
2018-08-11T06:56:20.243Z,208.13
2018-08-11T06:57:20.231Z,213.75
2018-08-11T06:58:20.220Z,230.63
2018-08-11T06:59:20.210Z,202.50
2018-08-11T07:00:20.198Z,191.25
2018-08-11T07:01:20.175Z,236.25
2018-08-11T07:02:20.169Z,213.75
2018-08-11T07:03:20.153Z,208.13
2018-08-11T07:04:20.141Z,196.88
2018-08-11T07:05:20.130Z,213.75
2018-08-11T07:06:20.112Z,236.25
2018-08-11T07:07:20.096Z,253.13
2018-08-11T07:08:20.089Z,213.75
2018-08-11T07:09:20.077Z,219.38
2018-08-11T07:10:20.068Z,225.00
2018-08-11T07:11:20.045Z,247.50
2018-08-11T07:12:20.039Z,241.88
2018-08-11T07:13:20.024Z,230.63
2018-08-11T07:14:20.018Z,219.38
2018-08-11T07:15:20.001Z,213.75
2018-08-11T07:16:19.981Z,219.38
2018-08-11T07:17:19.971Z,230.63
2018-08-11T07:18:19.958Z,219.38
2018-08-11T07:19:20.011Z,225.00
2018-08-11T07:20:19.933Z,230.63
2018-08-11T07:21:19.928Z,270.00
2018-08-11T07:22:19.910Z,292.50
2018-08-11T07:23:19.897Z,213.75
2018-08-11T07:24:19.884Z,275.63
2018-08-11T07:25:19.881Z,270.00
2018-08-11T07:26:19.872Z,286.88
2018-08-11T07:27:19.848Z,286.88
2018-08-11T07:28:19.846Z,320.63
2018-08-11T07:29:19.825Z,185.63
2018-08-11T07:30:19.884Z,180.00
2018-08-11T07:31:19.796Z,225.00
2018-08-11T07:32:19.785Z,258.75
2018-08-11T07:33:19.859Z,286.88
2018-08-11T07:34:19.765Z,1395.00
2018-08-11T07:35:19.792Z,1760.63
2018-08-11T07:36:19.918Z,1856.25
2018-08-11T07:37:19.728Z,1873.13
2018-08-11T07:38:19.719Z,1923.75
2018-08-11T07:39:19.709Z,1710.00
2018-08-11T07:40:19.699Z,1693.13
2018-08-11T07:41:19.695Z,1811.25
2018-08-11T07:42:19.679Z,1906.88
2018-08-11T07:43:19.737Z,1918.13
2018-08-11T07:44:19.664Z,208.13
2018-08-11T07:45:19.655Z,1670.63
2018-08-11T07:46:19.651Z,1563.75
2018-08-11T07:47:19.642Z,1665.00
2018-08-11T07:48:19.635Z,1766.25
2018-08-11T07:49:19.627Z,1833.75
2018-08-11T07:50:19.676Z,1721.25
2018-08-11T07:51:19.616Z,1760.63
2018-08-11T07:52:19.607Z,1963.13
2018-08-11T07:53:19.602Z,1951.88
2018-08-11T07:54:19.596Z,601.88
2018-08-11T07:55:19.591Z,247.50
2018-08-11T07:56:19.589Z,151.88
2018-08-11T07:57:19.581Z,613.13
2018-08-11T07:58:19.581Z,1209.38
2018-08-11T07:59:19.568Z,264.38
2018-08-11T08:00:19.570Z,371.25
2018-08-11T08:01:19.582Z,1333.13
2018-08-11T08:02:19.553Z,1788.75
2018-08-11T08:03:19.548Z,1856.25
2018-08-11T08:04:19.546Z,1906.88
2018-08-11T08:05:19.547Z,1541.25
2018-08-11T08:06:19.536Z,1659.38
2018-08-11T08:07:19.532Z,326.25
2018-08-11T08:08:19.529Z,1788.75
2018-08-11T08:09:19.519Z,1766.25
2018-08-11T08:10:19.515Z,1704.38
2018-08-11T08:11:19.510Z,1822.50
2018-08-11T08:12:19.512Z,1260.00
2018-08-11T08:13:19.505Z,270.00
2018-08-11T08:14:19.508Z,1856.25
2018-08-11T08:15:19.497Z,821.25
2018-08-11T08:16:19.498Z,264.38
2018-08-11T08:17:19.491Z,1687.50
2018-08-11T08:18:19.486Z,1755.00
2018-08-11T08:19:19.488Z,1670.63
2018-08-11T08:20:19.481Z,860.63
2018-08-11T08:21:19.486Z,174.38
2018-08-11T08:22:19.477Z,1625.63
2018-08-11T08:23:19.469Z,1648.13
2018-08-11T08:24:19.468Z,450.00
2018-08-11T08:25:19.477Z,213.75
2018-08-11T08:26:19.660Z,163.13
2018-08-11T08:27:19.457Z,1653.75
2018-08-11T08:28:19.454Z,1721.25
2018-08-11T08:29:19.465Z,1816.88
2018-08-11T08:30:19.448Z,180.00
2018-08-11T08:31:19.444Z,151.88
2018-08-11T08:32:19.437Z,871.88
2018-08-11T08:33:19.433Z,163.13
2018-08-11T08:34:19.425Z,196.88
2018-08-11T08:35:19.425Z,247.50
2018-08-11T08:36:19.416Z,1687.50
2018-08-11T08:37:19.414Z,444.38
2018-08-11T08:38:19.404Z,450.00
2018-08-11T08:39:19.400Z,191.25
2018-08-11T08:40:19.398Z,1766.25
2018-08-11T08:41:19.388Z,382.50
2018-08-11T08:42:19.392Z,202.50
2018-08-11T08:43:19.378Z,213.75
2018-08-11T08:44:19.377Z,247.50
2018-08-11T08:45:19.366Z,174.38
2018-08-11T08:46:19.370Z,174.38
2018-08-11T08:47:19.356Z,1057.50
2018-08-11T08:48:19.345Z,1653.75
2018-08-11T08:49:19.344Z,1125.00
2018-08-11T08:50:19.333Z,365.63
2018-08-11T08:51:19.329Z,275.63
2018-08-11T08:52:19.317Z,196.88
2018-08-11T08:53:19.332Z,163.13
2018-08-11T08:54:19.307Z,146.25
2018-08-11T08:55:19.304Z,123.75
2018-08-11T08:56:19.292Z,106.88
2018-08-11T08:57:19.284Z,106.88
2018-08-11T08:58:19.278Z,185.63
2018-08-11T08:59:19.266Z,1715.63
2018-08-11T09:00:19.260Z,1788.75
2018-08-11T09:01:19.276Z,180.00
2018-08-11T09:02:19.250Z,191.25
2018-08-11T09:03:19.241Z,236.25
2018-08-11T09:04:19.233Z,1698.75
2018-08-11T09:05:19.221Z,1665.00
2018-08-11T09:06:19.220Z,1648.13
2018-08-11T09:07:19.208Z,1681.88
2018-08-11T09:08:19.208Z,1631.25
2018-08-11T09:09:19.197Z,1546.88
2018-08-11T09:10:19.192Z,1434.38
2018-08-11T09:11:19.185Z,1530.00
2018-08-11T09:12:19.186Z,1614.38
2018-08-11T09:13:19.177Z,1563.75
2018-08-11T09:14:19.175Z,1636.88
2018-08-11T09:15:19.170Z,281.25
2018-08-11T09:16:19.170Z,1631.25
2018-08-11T09:17:19.164Z,303.75
2018-08-11T09:18:19.170Z,388.13
2018-08-11T09:19:19.182Z,1513.13
2018-08-11T09:20:19.150Z,1580.63
2018-08-11T09:21:19.149Z,1400.63
2018-08-11T09:22:19.144Z,871.88
2018-08-11T09:23:19.142Z,984.38
2018-08-11T09:24:19.137Z,1501.88
2018-08-11T09:25:19.133Z,1586.25
2018-08-11T09:26:19.137Z,1530.00
2018-08-11T09:27:19.126Z,1141.88
2018-08-11T09:28:19.126Z,410.63
2018-08-11T09:29:19.170Z,1501.88
2018-08-11T09:30:19.112Z,1501.88
2018-08-11T09:31:19.108Z,1456.88
2018-08-11T09:32:19.114Z,1473.75
2018-08-11T09:33:19.099Z,1456.88
2018-08-11T09:34:19.099Z,1372.50
2018-08-11T09:35:19.093Z,1490.63
2018-08-11T09:36:19.088Z,1406.25
2018-08-11T09:37:19.083Z,1355.63
2018-08-11T09:38:19.129Z,1383.75
2018-08-11T09:39:19.076Z,219.38
2018-08-11T09:40:19.074Z,185.63
2018-08-11T09:41:19.069Z,236.25
2018-08-11T09:42:19.070Z,1271.25
2018-08-11T09:43:19.062Z,691.88
2018-08-11T09:44:19.059Z,410.63
2018-08-11T09:45:19.052Z,382.50
2018-08-11T09:46:19.048Z,382.50
2018-08-11T09:47:19.046Z,360.00
2018-08-11T09:48:19.046Z,354.38
2018-08-11T09:49:19.042Z,118.13
2018-08-11T09:50:19.027Z,101.25
2018-08-11T09:51:19.024Z,281.25
2018-08-11T09:52:19.094Z,281.25
2018-08-11T09:53:19.012Z,309.38
2018-08-11T09:54:19.005Z,315.00
2018-08-11T09:55:19.000Z,320.63
2018-08-11T09:56:18.994Z,180.00
2018-08-11T09:57:18.994Z,202.50
2018-08-11T09:58:18.984Z,343.13
2018-08-11T09:59:18.981Z,264.38
2018-08-11T10:00:18.974Z,309.38
2018-08-11T10:01:18.963Z,253.13
2018-08-11T10:02:18.960Z,393.75
2018-08-11T10:03:18.950Z,399.38
2018-08-11T10:04:18.944Z,393.75
2018-08-11T10:05:18.939Z,371.25
2018-08-11T10:06:18.930Z,365.63
2018-08-11T10:07:18.929Z,354.38
2018-08-11T10:08:18.920Z,348.75
2018-08-11T10:09:18.916Z,348.75
2018-08-11T10:10:18.906Z,337.50
2018-08-11T10:11:18.903Z,331.88
2018-08-11T10:12:18.891Z,320.63
2018-08-11T10:13:18.884Z,326.25
2018-08-11T10:14:18.882Z,326.25
2018-08-11T10:15:18.880Z,326.25
2018-08-11T10:16:18.864Z,180.00
2018-08-11T10:17:18.858Z,348.75
2018-08-11T10:18:18.850Z,331.88
2018-08-11T10:19:18.842Z,208.13
2018-08-11T10:20:18.846Z,343.13
2018-08-11T10:21:18.848Z,303.75
2018-08-11T10:22:18.829Z,230.63
2018-08-11T10:23:18.821Z,174.38
2018-08-11T10:24:18.808Z,157.50
2018-08-11T10:25:18.811Z,129.38
2018-08-11T10:26:18.793Z,118.13
2018-08-11T10:27:18.787Z,146.25
2018-08-11T10:28:18.780Z,309.38
2018-08-11T10:29:18.777Z,337.50
2018-08-11T10:30:18.765Z,326.25
2018-08-11T10:31:18.756Z,315.00
2018-08-11T10:32:18.752Z,303.75
2018-08-11T10:33:18.742Z,298.13
2018-08-11T10:34:18.735Z,298.13
2018-08-11T10:35:18.729Z,219.38
2018-08-11T10:36:18.721Z,180.00
2018-08-11T10:37:18.711Z,298.13
2018-08-11T10:38:18.704Z,230.63
2018-08-11T10:39:18.698Z,185.63
2018-08-11T10:40:18.739Z,309.38
2018-08-11T10:41:18.690Z,337.50
2018-08-11T10:42:18.672Z,219.38
2018-08-11T10:43:18.666Z,225.00
2018-08-11T10:44:18.656Z,275.63
2018-08-11T10:45:18.655Z,163.13
2018-08-11T10:46:18.640Z,140.63
2018-08-11T10:47:18.634Z,135.00
2018-08-11T10:48:18.625Z,135.00
2018-08-11T10:49:18.624Z,151.88
2018-08-11T10:50:18.608Z,157.50
2018-08-11T10:51:18.598Z,174.38
2018-08-11T10:52:18.592Z,180.00
2018-08-11T10:53:18.582Z,275.63
2018-08-11T10:54:18.573Z,185.63
2018-08-11T10:55:18.572Z,180.00
2018-08-11T10:56:18.556Z,163.13
2018-08-11T10:57:18.553Z,146.25
2018-08-11T10:58:18.541Z,123.75
2018-08-11T10:59:18.532Z,118.13
2018-08-11T11:00:18.523Z,106.88
2018-08-11T11:01:18.536Z,95.63
2018-08-11T11:02:18.502Z,84.38
2018-08-11T11:03:18.494Z,73.13
2018-08-11T11:04:18.487Z,73.13
2018-08-11T11:05:18.488Z,73.13
2018-08-11T11:06:18.472Z,78.75
2018-08-11T11:07:18.459Z,90.00
2018-08-11T11:08:18.468Z,95.63
2018-08-11T11:09:18.445Z,101.25
2018-08-11T11:10:18.432Z,106.88
2018-08-11T11:11:18.422Z,118.13
2018-08-11T11:12:18.413Z,129.38
2018-08-11T11:13:18.403Z,135.00
2018-08-11T11:14:18.409Z,140.63
2018-08-11T11:15:18.392Z,151.88
2018-08-11T11:16:18.377Z,168.75
2018-08-11T11:17:18.377Z,168.75
2018-08-11T11:18:18.357Z,191.25
2018-08-11T11:19:18.349Z,202.50
2018-08-11T11:20:18.337Z,331.88
2018-08-11T11:21:18.331Z,202.50
2018-08-11T11:22:18.323Z,196.88
2018-08-11T11:23:18.307Z,180.00
2018-08-11T11:24:18.309Z,185.63
2018-08-11T11:25:18.294Z,168.75
2018-08-11T11:26:18.285Z,174.38
2018-08-11T11:27:18.276Z,168.75
2018-08-11T11:28:18.262Z,168.75
2018-08-11T11:29:18.252Z,174.38
2018-08-11T11:30:18.247Z,168.75
2018-08-11T11:31:18.233Z,168.75
2018-08-11T11:32:18.226Z,157.50
2018-08-11T11:33:18.215Z,157.50
2018-08-11T11:34:18.207Z,146.25
2018-08-11T11:35:18.200Z,146.25
2018-08-11T11:36:18.190Z,146.25
2018-08-11T11:37:18.215Z,151.88
2018-08-11T11:38:18.169Z,157.50
2018-08-11T11:39:18.158Z,163.13
2018-08-11T11:40:18.157Z,168.75
2018-08-11T11:41:18.149Z,185.63
2018-08-11T11:42:18.141Z,191.25
2018-08-11T11:43:18.148Z,337.50
2018-08-11T11:44:18.113Z,354.38
2018-08-11T11:45:18.106Z,365.63
2018-08-11T11:46:18.095Z,230.63
2018-08-11T11:47:18.178Z,225.00
2018-08-11T11:48:18.086Z,298.13
2018-08-11T11:49:18.070Z,208.13
2018-08-11T11:50:18.064Z,213.75
2018-08-11T11:51:18.055Z,264.38
2018-08-11T11:52:18.051Z,213.75
2018-08-11T11:53:18.033Z,219.38
2018-08-11T11:54:18.024Z,258.75
2018-08-11T11:55:18.018Z,253.13
2018-08-11T11:56:18.011Z,348.75
2018-08-11T11:57:18.016Z,292.50
2018-08-11T11:58:17.986Z,343.13
2018-08-11T11:59:17.978Z,298.13
2018-08-11T12:00:17.968Z,371.25
2018-08-11T12:01:17.960Z,371.25
2018-08-11T12:02:17.958Z,365.63
2018-08-11T12:03:17.957Z,365.63
2018-08-11T12:04:17.936Z,270.00
2018-08-11T12:05:17.928Z,270.00
2018-08-11T12:06:17.925Z,264.38
2018-08-11T12:07:17.910Z,298.13
2018-08-11T12:08:17.912Z,286.88
2018-08-11T12:09:17.897Z,258.75
2018-08-11T12:10:17.895Z,241.88
2018-08-11T12:11:17.877Z,230.63
2018-08-11T12:12:17.875Z,230.63
2018-08-11T12:13:17.861Z,230.63
2018-08-11T12:14:17.857Z,219.38
2018-08-11T12:15:17.846Z,202.50
2018-08-11T12:16:17.839Z,196.88
2018-08-11T12:17:17.829Z,191.25
2018-08-11T12:18:17.826Z,185.63
2018-08-11T12:19:17.867Z,191.25
2018-08-11T12:20:17.814Z,191.25
2018-08-11T12:21:17.798Z,191.25
2018-08-11T12:22:17.791Z,191.25
2018-08-11T12:23:17.788Z,191.25
2018-08-11T12:24:17.772Z,202.50
2018-08-11T12:25:17.762Z,213.75
2018-08-11T12:26:17.756Z,213.75
2018-08-11T12:27:17.744Z,191.25
2018-08-11T12:28:17.732Z,191.25
2018-08-11T12:29:17.730Z,202.50
2018-08-11T12:30:17.725Z,225.00
2018-08-11T12:31:17.810Z,315.00
2018-08-11T12:32:17.710Z,275.63
2018-08-11T12:33:17.694Z,174.38
2018-08-11T12:34:17.687Z,174.38
2018-08-11T12:35:17.680Z,163.13
2018-08-11T12:36:17.679Z,163.13
2018-08-11T12:37:17.661Z,230.63
2018-08-11T12:38:17.653Z,157.50
2018-08-11T12:39:17.642Z,174.38
2018-08-11T12:40:17.643Z,163.13
2018-08-11T12:41:17.628Z,180.00
2018-08-11T12:42:17.705Z,168.75
2018-08-11T12:43:17.621Z,320.63
2018-08-11T12:44:17.629Z,180.00
2018-08-11T12:45:17.597Z,326.25
2018-08-11T12:46:17.593Z,326.25